createdAt,value
2018-06-19T00:01:08.472Z,18.57
2018-06-19T00:02:18.925Z,18.57
2018-06-19T00:03:29.120Z,18.55
2018-06-19T00:04:39.276Z,18.56
2018-06-19T00:05:49.745Z,18.53
2018-06-19T00:06:59.893Z,18.41
2018-06-19T00:08:10.045Z,18.41
2018-06-19T00:09:20.271Z,18.44
2018-06-19T00:10:30.691Z,18.41
2018-06-19T00:11:40.825Z,18.44
2018-06-19T00:12:51.028Z,18.41
2018-06-19T00:14:01.174Z,18.44
2018-06-19T00:15:11.346Z,18.28
2018-06-19T00:16:21.542Z,18.26
2018-06-19T00:17:31.756Z,18.35
2018-06-19T00:18:41.956Z,18.35
2018-06-19T00:19:52.123Z,18.37
2018-06-19T00:21:02.321Z,18.37
2018-06-19T00:22:12.472Z,18.32
2018-06-19T00:23:22.632Z,18.38
2018-06-19T00:24:32.806Z,18.37
2018-06-19T00:25:42.981Z,18.3
2018-06-19T00:26:53.112Z,18.32
2018-06-19T00:28:03.247Z,18.3
2018-06-19T00:29:13.373Z,18.28
2018-06-19T00:30:23.657Z,18.22
2018-06-19T00:31:33.861Z,18.23
2018-06-19T00:32:44.104Z,18.3
2018-06-19T00:33:54.269Z,18.28
2018-06-19T00:35:04.649Z,18.22
2018-06-19T00:36:14.814Z,18.2
2018-06-19T00:37:25.011Z,18.17
2018-06-19T00:38:35.191Z,18.22
2018-06-19T00:39:45.431Z,18.15
2018-06-19T00:40:55.583Z,18.09
2018-06-19T00:42:05.886Z,18.04
2018-06-19T00:43:15.887Z,18.02
2018-06-19T00:44:26.052Z,17.98
2018-06-19T00:45:36.188Z,18.02
2018-06-19T00:46:46.339Z,18.02
2018-06-19T00:47:56.493Z,18
2018-06-19T00:49:06.289Z,17.98
2018-06-19T00:50:16.539Z,17.98
2018-06-19T00:51:26.807Z,17.97
2018-06-19T00:52:37.055Z,18
2018-06-19T00:53:47.214Z,18.05
2018-06-19T00:54:57.421Z,17.98
2018-06-19T00:56:07.585Z,17.86
2018-06-19T00:57:17.796Z,18
2018-06-19T00:58:28.075Z,17.95
2018-06-19T00:59:38.334Z,17.95
2018-06-19T01:00:48.515Z,17.97
2018-06-19T01:01:58.750Z,17.97
2018-06-19T01:03:08.992Z,18
2018-06-19T01:04:19.231Z,17.89
2018-06-19T01:05:29.377Z,17.89
2018-06-19T01:06:39.299Z,17.87
2018-06-19T01:07:49.454Z,17.91
2018-06-19T01:08:59.600Z,17.86
2018-06-19T01:10:09.486Z,17.86
2018-06-19T01:11:19.634Z,17.73
2018-06-19T01:12:29.805Z,17.85
2018-06-19T01:13:39.963Z,17.82
2018-06-19T01:14:50.313Z,17.85
2018-06-19T01:16:00.455Z,17.79
2018-06-19T01:17:10.610Z,17.86
2018-06-19T01:18:20.873Z,17.94
2018-06-19T01:19:32.029Z,17.8
2018-06-19T01:20:42.231Z,17.87
2018-06-19T01:21:52.130Z,17.89
2018-06-19T01:23:03.278Z,17.95
2018-06-19T01:24:13.454Z,17.87
2018-06-19T01:25:23.612Z,17.94
2018-06-19T01:26:33.845Z,17.97
2018-06-19T01:27:44.036Z,17.94
2018-06-19T01:28:54.186Z,17.95
2018-06-19T01:30:04.447Z,17.95
2018-06-19T01:31:14.580Z,17.98
2018-06-19T01:32:24.716Z,17.97
2018-06-19T01:33:34.845Z,17.98
2018-06-19T01:34:45.001Z,17.98
2018-06-19T01:35:55.154Z,18.02
2018-06-19T01:37:05.114Z,18.05
2018-06-19T01:38:15.763Z,18.02
2018-06-19T01:39:25.942Z,18.09
2018-06-19T01:40:36.076Z,18.04
2018-06-19T01:41:46.276Z,18.09
2018-06-19T01:42:56.488Z,18.07
2018-06-19T01:44:06.809Z,18.01
2018-06-19T01:45:16.958Z,18.02
2018-06-19T01:46:27.123Z,18
2018-06-19T01:47:37.395Z,18.01
2018-06-19T01:48:47.580Z,18
2018-06-19T01:49:57.721Z,18
2018-06-19T01:51:07.901Z,17.98
2018-06-19T01:52:18.068Z,17.97
2018-06-19T01:53:28.282Z,18.01
2018-06-19T01:54:38.421Z,18
2018-06-19T01:55:48.538Z,18.02
2018-06-19T01:56:58.672Z,18
2018-06-19T01:58:09.007Z,18.1
2018-06-19T01:59:19.153Z,18.02
2018-06-19T02:00:29.294Z,18.04
2018-06-19T02:01:39.577Z,18.01
2018-06-19T02:02:49.753Z,17.98
2018-06-19T02:03:59.920Z,18
2018-06-19T02:05:10.112Z,17.98
2018-06-19T02:06:20.278Z,18.12
2018-06-19T02:07:30.661Z,18
2018-06-19T02:08:40.813Z,17.95
2018-06-19T02:09:50.998Z,17.92
2018-06-19T02:11:01.181Z,18.02
2018-06-19T02:12:11.342Z,17.95
2018-06-19T02:13:21.471Z,17.95
2018-06-19T02:14:31.608Z,18.01
2018-06-19T02:15:41.787Z,17.97
2018-06-19T02:16:52.024Z,17.92
2018-06-19T02:18:02.154Z,17.94
2018-06-19T02:19:12.568Z,18
2018-06-19T02:20:22.692Z,17.94
2018-06-19T02:21:32.947Z,17.86
2018-06-19T02:22:43.203Z,17.87
2018-06-19T02:23:53.365Z,17.75
2018-06-19T02:25:03.229Z,17.75
2018-06-19T02:26:13.382Z,17.73
2018-06-19T02:27:23.538Z,17.68
2018-06-19T02:28:33.671Z,17.67
2018-06-19T02:29:43.866Z,17.58
2018-06-19T02:30:54.119Z,17.58
2018-06-19T02:32:04.277Z,17.61
2018-06-19T02:33:14.575Z,17.58
2018-06-19T02:34:24.347Z,17.57
2018-06-19T02:35:34.530Z,17.58
2018-06-19T02:36:44.768Z,17.61
2018-06-19T02:37:54.947Z,17.55
2018-06-19T02:39:05.265Z,17.58
2018-06-19T02:40:15.487Z,17.5
2018-06-19T02:41:25.718Z,17.47
2018-06-19T02:42:35.916Z,17.45
2018-06-19T02:43:46.111Z,17.42
2018-06-19T02:44:56.333Z,17.43
2018-06-19T02:46:06.531Z,17.38
2018-06-19T02:47:16.683Z,17.39
2018-06-19T02:48:26.856Z,17.32
2018-06-19T02:49:37.038Z,17.31
2018-06-19T02:50:47.171Z,17.23
2018-06-19T02:51:57.322Z,17.31
2018-06-19T02:53:07.448Z,17.23
2018-06-19T02:54:17.311Z,17.17
2018-06-19T02:55:27.475Z,17.3
2018-06-19T02:56:37.614Z,17.17
2018-06-19T02:57:47.805Z,17.19
2018-06-19T02:58:58.031Z,17.3
2018-06-19T03:00:08.204Z,17.19
2018-06-19T03:01:18.419Z,17.17
2018-06-19T03:02:28.640Z,17.16
2018-06-19T03:03:38.796Z,17.09
2018-06-19T03:04:48.965Z,17.11
2018-06-19T03:05:59.110Z,17.09
2018-06-19T03:07:09.245Z,17.09
2018-06-19T03:08:19.610Z,17.16
2018-06-19T03:09:29.826Z,17.2
2018-06-19T03:10:39.960Z,17.08
2018-06-19T03:11:50.099Z,17.11
2018-06-19T03:13:00.237Z,17.14
2018-06-19T03:14:10.520Z,17.09
2018-06-19T03:15:21.674Z,17.11
2018-06-19T03:16:31.510Z,17.14
2018-06-19T03:17:41.650Z,17.12
2018-06-19T03:18:51.925Z,17.09
2018-06-19T03:20:02.089Z,17.11
2018-06-19T03:21:12.283Z,17.19
2018-06-19T03:22:22.472Z,17.28
2018-06-19T03:23:32.615Z,17.28
2018-06-19T03:24:42.959Z,17.19
2018-06-19T03:25:53.105Z,17.23
2018-06-19T03:27:03.339Z,17.27
2018-06-19T03:28:13.740Z,17.23
2018-06-19T03:29:23.977Z,17.21
2018-06-19T03:30:34.391Z,17.2
2018-06-19T03:31:44.654Z,17.31
2018-06-19T03:32:54.834Z,17.24
2018-06-19T03:34:04.719Z,17.23
2018-06-19T03:35:14.974Z,17.21
2018-06-19T03:36:25.159Z,17.27
2018-06-19T03:37:35.367Z,17.27
2018-06-19T03:38:45.696Z,17.3
2018-06-19T03:39:55.850Z,17.27
2018-06-19T03:41:06.021Z,17.19
2018-06-19T03:42:16.160Z,17.2
2018-06-19T03:43:26.317Z,17.09
2018-06-19T03:44:36.442Z,17.09
2018-06-19T03:45:46.613Z,17.11
2018-06-19T03:46:56.745Z,17.08
2018-06-19T03:48:06.398Z,17.16
2018-06-19T03:49:16.629Z,17.08
2018-06-19T03:50:26.820Z,17.17
2018-06-19T03:51:37.181Z,17.14
2018-06-19T03:52:47.412Z,17.11
2018-06-19T03:53:57.567Z,17.2
2018-06-19T03:55:07.718Z,17.12
2018-06-19T03:56:17.859Z,17.02
2018-06-19T03:57:28.636Z,17.05
2018-06-19T03:58:38.833Z,16.96
2018-06-19T03:59:49.042Z,17.09
2018-06-19T04:00:59.185Z,16.99
2018-06-19T04:02:09.100Z,16.94
2018-06-19T04:03:19.268Z,17.01
2018-06-19T04:04:29.539Z,16.9
2018-06-19T04:05:39.713Z,16.89
2018-06-19T04:06:49.974Z,16.93
2018-06-19T04:07:59.883Z,16.84
2018-06-19T04:09:10.048Z,16.75
2018-06-19T04:10:20.197Z,16.72
2018-06-19T04:11:30.483Z,16.69
2018-06-19T04:12:40.597Z,16.8
2018-06-19T04:13:50.743Z,16.75
2018-06-19T04:15:01.010Z,16.75
2018-06-19T04:16:11.202Z,16.75
2018-06-19T04:17:21.394Z,16.82
2018-06-19T04:18:31.530Z,16.74
2018-06-19T04:19:41.712Z,16.74
2018-06-19T04:20:51.880Z,16.76
2018-06-19T04:22:02.078Z,16.72
2018-06-19T04:23:12.239Z,16.74
2018-06-19T04:24:22.406Z,16.69
2018-06-19T04:25:32.566Z,16.68
2018-06-19T04:26:42.750Z,16.74
2018-06-19T04:27:52.917Z,16.8
2018-06-19T04:29:03.092Z,16.79
2018-06-19T04:30:13.348Z,16.84
2018-06-19T04:31:23.647Z,16.84
2018-06-19T04:32:33.825Z,16.91
2018-06-19T04:33:43.780Z,17.05
2018-06-19T04:34:53.915Z,17.04
2018-06-19T04:36:04.098Z,17.05
2018-06-19T04:37:14.238Z,17.01
2018-06-19T04:38:24.381Z,17.02
2018-06-19T04:39:34.658Z,17.02
2018-06-19T04:40:44.818Z,17.16
2018-06-19T04:41:55.113Z,17.09
2018-06-19T04:43:05.366Z,17.17
2018-06-19T04:44:15.531Z,17.2
2018-06-19T04:45:25.666Z,17.28
2018-06-19T04:46:35.612Z,17.3
2018-06-19T04:47:45.784Z,17.35
2018-06-19T04:48:56.234Z,17.38
2018-06-19T04:50:06.373Z,17.43
2018-06-19T04:51:16.531Z,17.42
2018-06-19T04:52:26.687Z,17.4
2018-06-19T04:53:36.865Z,17.42
2018-06-19T04:54:47.072Z,17.4
2018-06-19T04:55:57.325Z,17.5
2018-06-19T04:57:07.596Z,17.57
2018-06-19T04:58:17.814Z,17.64
2018-06-19T04:59:28.016Z,17.61
2018-06-19T05:00:38.176Z,17.57
2018-06-19T05:01:48.052Z,17.6
2018-06-19T05:02:58.208Z,17.61
2018-06-19T05:04:08.468Z,17.58
2018-06-19T05:05:18.639Z,17.7
2018-06-19T05:06:28.517Z,17.76
2018-06-19T05:07:38.670Z,17.7
2018-06-19T05:08:48.814Z,17.75
2018-06-19T05:09:58.980Z,17.75
2018-06-19T05:11:09.132Z,17.73
2018-06-19T05:12:19.337Z,17.75
2018-06-19T05:13:29.495Z,17.65
2018-06-19T05:14:39.617Z,17.77
2018-06-19T05:15:49.771Z,17.73
2018-06-19T05:16:59.920Z,17.7
2018-06-19T05:18:09.685Z,17.82
2018-06-19T05:19:20.003Z,17.77
2018-06-19T05:20:30.164Z,17.82
2018-06-19T05:21:40.417Z,17.86
2018-06-19T05:22:50.557Z,17.89
2018-06-19T05:24:00.730Z,17.94
2018-06-19T05:25:10.938Z,17.94
2018-06-19T05:26:20.838Z,17.98
2018-06-19T05:27:31.054Z,17.92
2018-06-19T05:28:41.228Z,18.01
2018-06-19T05:29:51.415Z,17.97
2018-06-19T05:31:01.557Z,17.98
2018-06-19T05:32:11.697Z,18
2018-06-19T05:33:21.842Z,18.02
2018-06-19T05:34:32.046Z,18.04
2018-06-19T05:35:42.213Z,18.09
2018-06-19T05:36:52.342Z,18.1
2018-06-19T05:38:02.256Z,18.15
2018-06-19T05:39:12.437Z,18.09
2018-06-19T05:40:22.869Z,18.15
2018-06-19T05:41:33.046Z,18.13
2018-06-19T05:42:43.191Z,18.15
2018-06-19T05:43:53.336Z,18.2
2018-06-19T05:45:03.661Z,18.17
2018-06-19T05:46:14.094Z,18.28
2018-06-19T05:47:24.461Z,18.3
2018-06-19T05:48:34.620Z,18.22
2018-06-19T05:49:44.786Z,18.28
2018-06-19T05:50:54.919Z,18.32
2018-06-19T05:52:04.827Z,18.28
2018-06-19T05:53:14.985Z,18.26
2018-06-19T05:54:25.159Z,18.22
2018-06-19T05:55:35.318Z,18.34
2018-06-19T05:56:45.515Z,18.32
2018-06-19T05:57:55.732Z,18.34
2018-06-19T05:59:06.055Z,18.4
2018-06-19T06:00:16.554Z,18.28
2018-06-19T06:01:26.764Z,18.38
2018-06-19T06:02:37.075Z,18.26
2018-06-19T06:03:47.304Z,18.38
2018-06-19T06:04:57.476Z,18.44
2018-06-19T06:06:07.782Z,18.41
2018-06-19T06:07:18.030Z,18.5
2018-06-19T06:08:28.220Z,18.52
2018-06-19T06:09:38.426Z,18.49
2018-06-19T06:10:48.579Z,18.55
2018-06-19T06:11:58.845Z,18.62
2018-06-19T06:13:09.066Z,18.72
2018-06-19T06:14:19.229Z,18.73
2018-06-19T06:15:29.503Z,18.67
2018-06-19T06:16:40.203Z,18.72
2018-06-19T06:17:50.869Z,18.63
2018-06-19T06:19:01.099Z,18.79
2018-06-19T06:20:11.377Z,18.82
2018-06-19T06:21:21.810Z,18.79
2018-06-19T06:22:31.945Z,18.72
2018-06-19T06:23:42.127Z,18.65
2018-06-19T06:24:52.299Z,18.8
2018-06-19T06:26:02.539Z,18.82
2018-06-19T06:27:12.692Z,18.8
2018-06-19T06:28:22.907Z,18.86
2018-06-19T06:29:33.149Z,18.88
2018-06-19T06:30:43.338Z,18.91
2018-06-19T06:31:53.549Z,18.98
2018-06-19T06:33:03.845Z,18.98
2018-06-19T06:34:13.735Z,19.06
2018-06-19T06:35:23.895Z,19.13
2018-06-19T06:36:34.068Z,19.15
2018-06-19T06:37:44.164Z,19.18
2018-06-19T06:38:55.144Z,19.13
2018-06-19T06:40:05.348Z,19.12
2018-06-19T06:41:15.584Z,19.19
2018-06-19T06:42:25.734Z,19.13
2018-06-19T06:43:36.851Z,19.21
2018-06-19T06:44:48.085Z,19.25
2018-06-19T06:45:58.403Z,19.3
2018-06-19T06:47:08.578Z,19.28
2018-06-19T06:48:18.758Z,19.27
2018-06-19T06:49:28.900Z,19.25
2018-06-19T06:50:39.119Z,19.33
2018-06-19T06:51:49.312Z,19.35
2018-06-19T06:52:59.475Z,19.46
2018-06-19T06:54:09.670Z,19.56
2018-06-19T06:55:19.829Z,19.56
2018-06-19T06:56:30.185Z,19.73
2018-06-19T06:57:40.390Z,19.85
2018-06-19T06:58:50.570Z,19.89
2018-06-19T07:00:00.919Z,19.98
2018-06-19T07:01:11.181Z,19.93
2018-06-19T07:02:21.528Z,20.05
2018-06-19T07:03:31.713Z,20.17
2018-06-19T07:04:41.919Z,20.26
2018-06-19T07:05:52.082Z,20.42
2018-06-19T07:07:02.301Z,20.46
2018-06-19T07:08:12.447Z,20.43
2018-06-19T07:09:22.653Z,20.53
2018-06-19T07:10:33.038Z,20.53
2018-06-19T07:11:43.214Z,20.56
2018-06-19T07:12:53.357Z,20.63
2018-06-19T07:14:03.544Z,20.71
2018-06-19T07:15:13.712Z,20.63
2018-06-19T07:16:24.028Z,20.64
2018-06-19T07:17:34.180Z,20.68
2018-06-19T07:18:44.419Z,20.73
2018-06-19T07:19:54.690Z,20.76
2018-06-19T07:21:04.877Z,20.78
2018-06-19T07:22:15.123Z,20.85
2018-06-19T07:23:25.670Z,20.76
2018-06-19T07:24:35.927Z,20.76
2018-06-19T07:25:46.274Z,20.66
2018-06-19T07:26:56.560Z,20.75
2018-06-19T07:28:06.738Z,20.75
2018-06-19T07:29:17.034Z,20.75
2018-06-19T07:30:27.188Z,20.78
2018-06-19T07:31:37.385Z,20.83
2018-06-19T07:32:47.613Z,20.78
2018-06-19T07:33:57.775Z,20.96
2018-06-19T07:35:07.969Z,21.12
2018-06-19T07:36:18.189Z,21.15
2018-06-19T07:37:27.968Z,21.12
2018-06-19T07:38:38.165Z,21.03
2018-06-19T07:39:48.170Z,21.04
2018-06-19T07:40:58.344Z,21.09
2018-06-19T07:42:08.529Z,21.04
2018-06-19T07:43:18.676Z,21.12
2018-06-19T07:44:28.831Z,21.08
2018-06-19T07:45:39.031Z,21.1
2018-06-19T07:46:49.236Z,21.15
2018-06-19T07:47:59.395Z,21.09
2018-06-19T07:49:09.620Z,21.25
2018-06-19T07:50:19.790Z,21.33
2018-06-19T07:51:30.100Z,21.33
2018-06-19T07:52:40.276Z,21.46
2018-06-19T07:53:50.426Z,21.5
2018-06-19T07:55:00.565Z,21.49
2018-06-19T07:56:10.764Z,21.6
2018-06-19T07:57:21.062Z,21.6
2018-06-19T07:58:31.501Z,21.64
2018-06-19T07:59:41.707Z,21.69
2018-06-19T08:00:52.118Z,21.65
2018-06-19T08:02:02.301Z,21.66
2018-06-19T08:03:12.490Z,21.65
2018-06-19T08:04:22.814Z,21.66
2018-06-19T08:05:32.987Z,21.71
2018-06-19T08:06:43.183Z,21.72
2018-06-19T08:07:53.329Z,21.66
2018-06-19T08:09:03.518Z,21.6
2018-06-19T08:10:13.717Z,21.57
2018-06-19T08:11:23.961Z,21.56
2018-06-19T08:12:34.146Z,21.43
2018-06-19T08:13:44.353Z,21.41
2018-06-19T08:14:54.517Z,21.45
2018-06-19T08:16:04.657Z,21.54
2018-06-19T08:17:14.826Z,21.53
2018-06-19T08:18:24.972Z,21.57
2018-06-19T08:19:35.339Z,21.56
2018-06-19T08:20:45.341Z,21.69
2018-06-19T08:21:55.554Z,21.65
2018-06-19T08:23:05.785Z,21.72
2018-06-19T08:24:15.973Z,21.73
2018-06-19T08:25:26.190Z,21.72
2018-06-19T08:26:36.405Z,21.71
2018-06-19T08:27:46.616Z,21.58
2018-06-19T08:28:56.855Z,21.56
2018-06-19T08:30:07.173Z,21.61
2018-06-19T08:31:17.327Z,21.58
2018-06-19T08:32:27.470Z,21.58
2018-06-19T08:33:37.659Z,21.56
2018-06-19T08:34:47.913Z,21.57
2018-06-19T08:35:58.071Z,21.68
2018-06-19T08:37:08.295Z,21.72
2018-06-19T08:38:18.523Z,21.73
2018-06-19T08:39:28.934Z,21.73
2018-06-19T08:40:39.113Z,21.72
2018-06-19T08:41:49.422Z,21.9
2018-06-19T08:42:59.620Z,21.94
2018-06-19T08:44:09.811Z,21.96
2018-06-19T08:45:20.003Z,21.94
2018-06-19T08:46:30.189Z,21.98
2018-06-19T08:47:40.653Z,21.96
2018-06-19T08:48:50.838Z,22.12
2018-06-19T08:50:00.987Z,22.2
2018-06-19T08:51:11.135Z,22.26
2018-06-19T08:52:21.297Z,22.24
2018-06-19T08:53:31.482Z,22.39
2018-06-19T08:54:41.660Z,22.35
2018-06-19T08:55:51.857Z,22.35
2018-06-19T08:57:02.067Z,22.4
2018-06-19T08:58:12.278Z,22.33
2018-06-19T08:59:22.673Z,22.45
2018-06-19T09:00:32.830Z,22.43
2018-06-19T09:01:43.024Z,22.38
2018-06-19T09:02:52.986Z,22.43
2018-06-19T09:04:03.160Z,22.55
2018-06-19T09:05:13.336Z,22.57
2018-06-19T09:06:23.232Z,22.63
2018-06-19T09:07:33.429Z,22.63
2018-06-19T09:08:43.621Z,22.71
2018-06-19T09:09:53.798Z,22.6
2018-06-19T09:11:03.805Z,22.73
2018-06-19T09:12:14.053Z,22.73
2018-06-19T09:13:24.299Z,22.78
2018-06-19T09:14:34.639Z,22.86
2018-06-19T09:15:44.780Z,22.85
2018-06-19T09:16:54.946Z,22.86
2018-06-19T09:18:05.246Z,22.86
2018-06-19T09:19:15.504Z,22.98
2018-06-19T09:20:25.824Z,22.86
2018-06-19T09:21:35.897Z,22.96
2018-06-19T09:22:46.090Z,22.85
2018-06-19T09:23:56.265Z,23.01
2018-06-19T09:25:06.466Z,23.03
2018-06-19T09:26:16.696Z,23.03
2018-06-19T09:27:26.997Z,23.05
2018-06-19T09:28:37.233Z,22.89
2018-06-19T09:29:47.379Z,22.87
2018-06-19T09:30:57.589Z,22.86
2018-06-19T09:32:07.826Z,22.79
2018-06-19T09:33:18.000Z,22.71
2018-06-19T09:34:28.200Z,22.64
2018-06-19T09:35:38.420Z,22.6
2018-06-19T09:36:48.713Z,22.64
2018-06-19T09:37:58.657Z,22.61
2018-06-19T09:39:08.850Z,22.6
2018-06-19T09:40:19.025Z,22.61
2018-06-19T09:41:29.171Z,22.48
2018-06-19T09:42:39.301Z,22.55
2018-06-19T09:43:49.140Z,22.46
2018-06-19T09:44:59.378Z,22.42
2018-06-19T09:46:09.320Z,22.31
2018-06-19T09:47:19.227Z,22.24
2018-06-19T09:48:29.392Z,22.24
2018-06-19T09:49:39.639Z,22.26
2018-06-19T09:50:49.796Z,22.39
2018-06-19T09:52:00.060Z,22.4
2018-06-19T09:53:10.253Z,22.3
2018-06-19T09:54:20.448Z,22.3
2018-06-19T09:55:30.634Z,22.39
2018-06-19T09:56:40.879Z,22.34
2018-06-19T09:57:51.033Z,22.33
2018-06-19T09:59:01.341Z,22.46
2018-06-19T10:00:11.688Z,22.46
2018-06-19T10:01:21.839Z,22.5
2018-06-19T10:02:32.091Z,22.49
2018-06-19T10:03:42.364Z,22.49
2018-06-19T10:04:52.544Z,22.5
2018-06-19T10:06:02.736Z,22.61
2018-06-19T10:07:12.706Z,22.45
2018-06-19T10:08:22.872Z,22.43
2018-06-19T10:09:33.052Z,22.5
2018-06-19T10:10:43.195Z,22.53
2018-06-19T10:11:53.738Z,22.71
2018-06-19T10:13:04.288Z,22.82
2018-06-19T10:14:14.478Z,22.89
2018-06-19T10:15:24.634Z,22.9
2018-06-19T10:16:34.777Z,23.02
2018-06-19T10:17:44.946Z,23.06
2018-06-19T10:18:55.145Z,23.16
2018-06-19T10:20:05.055Z,23.35
2018-06-19T10:21:15.243Z,23.36
2018-06-19T10:22:25.469Z,23.38
2018-06-19T10:23:35.803Z,23.38
2018-06-19T10:24:45.977Z,23.39
2018-06-19T10:25:56.162Z,23.38
2018-06-19T10:27:06.315Z,23.17
2018-06-19T10:28:16.499Z,23.17
2018-06-19T10:29:26.683Z,23.16
2018-06-19T10:30:36.995Z,23.21
2018-06-19T10:31:47.198Z,23.08
2018-06-19T10:32:57.457Z,23.17
2018-06-19T10:34:07.634Z,23.14
2018-06-19T10:35:17.857Z,23.17
2018-06-19T10:36:28.029Z,23.05
2018-06-19T10:37:38.312Z,22.99
2018-06-19T10:38:48.532Z,22.99
2018-06-19T10:39:58.712Z,23.02
2018-06-19T10:41:08.624Z,23.02
2018-06-19T10:42:18.775Z,23.17
2018-06-19T10:43:28.996Z,23.23
2018-06-19T10:44:39.180Z,23.38
2018-06-19T10:45:49.429Z,23.5
2018-06-19T10:46:59.345Z,23.73
2018-06-19T10:48:09.379Z,23.85
2018-06-19T10:49:19.624Z,23.88
2018-06-19T10:50:29.807Z,24.05
2018-06-19T10:51:39.976Z,24.09
2018-06-19T10:52:50.445Z,24.09
2018-06-19T10:54:00.661Z,24.09
2018-06-19T10:55:10.846Z,24.12
2018-06-19T10:56:21.020Z,24.15
2018-06-19T10:57:31.169Z,24.1
2018-06-19T10:58:41.085Z,24.38
2018-06-19T10:59:51.262Z,24.63
2018-06-19T11:01:01.431Z,24.8
2018-06-19T11:02:11.609Z,24.88
2018-06-19T11:03:21.540Z,25.1
2018-06-19T11:04:31.715Z,25.1
2018-06-19T11:05:41.878Z,25.09
2018-06-19T11:06:52.113Z,25.06
2018-06-19T11:08:02.288Z,25.1
2018-06-19T11:09:12.580Z,25.12
2018-06-19T11:10:22.765Z,25.18
2018-06-19T11:11:32.687Z,25.07
2018-06-19T11:12:42.516Z,25.24
2018-06-19T11:13:52.460Z,25.18
2018-06-19T11:15:02.738Z,25.06
2018-06-19T11:16:12.938Z,25
2018-06-19T11:17:23.151Z,24.92
2018-06-19T11:18:33.358Z,24.87
2018-06-19T11:19:43.526Z,24.8
2018-06-19T11:20:53.743Z,24.76
2018-06-19T11:22:03.891Z,24.76
2018-06-19T11:23:14.081Z,24.62
2018-06-19T11:24:24.258Z,24.63
2018-06-19T11:25:34.493Z,24.65
2018-06-19T11:26:44.714Z,24.67
2018-06-19T11:27:54.913Z,24.8
2018-06-19T11:29:05.397Z,24.7
2018-06-19T11:30:15.881Z,24.62
2018-06-19T11:31:26.198Z,24.62
2018-06-19T11:32:36.380Z,24.51
2018-06-19T11:33:46.533Z,24.29
2018-06-19T11:34:56.723Z,24.31
2018-06-19T11:36:06.938Z,24.43
2018-06-19T11:37:17.204Z,24.38
2018-06-19T11:38:27.394Z,24.29
2018-06-19T11:39:37.642Z,24.32
2018-06-19T11:40:47.840Z,24.22
2018-06-19T11:41:58.017Z,24.16
2018-06-19T11:43:08.255Z,24.1
2018-06-19T11:44:18.436Z,24.1
2018-06-19T11:45:28.774Z,24.2
2018-06-19T11:46:38.669Z,24.12
2018-06-19T11:47:48.838Z,24.13
2018-06-19T11:48:59.000Z,24.06
2018-06-19T11:50:08.647Z,24.09
2018-06-19T11:51:18.969Z,24.06
2018-06-19T11:52:29.257Z,24.07
2018-06-19T11:53:39.484Z,24.17
2018-06-19T11:54:49.689Z,24.22
2018-06-19T11:55:59.909Z,24.15
2018-06-19T11:57:10.109Z,24.13
2018-06-19T11:58:20.270Z,24.25
2018-06-19T11:59:30.471Z,24.31
2018-06-19T12:00:40.323Z,24.28
2018-06-19T12:01:50.603Z,24.55
2018-06-19T12:03:01.088Z,24.85
2018-06-19T12:04:11.321Z,25
2018-06-19T12:05:21.523Z,25.03
2018-06-19T12:06:31.776Z,25.09
2018-06-19T12:07:42.049Z,25.19
2018-06-19T12:08:52.203Z,25.27
2018-06-19T12:10:02.408Z,25.4
2018-06-19T12:11:12.652Z,25.34
2018-06-19T12:12:22.821Z,25.39
2018-06-19T12:13:33.036Z,25.32
2018-06-19T12:14:43.236Z,25.31
2018-06-19T12:15:53.440Z,25.19
2018-06-19T12:17:03.616Z,25.06
2018-06-19T12:18:13.551Z,25.06
2018-06-19T12:19:23.749Z,24.85
2018-06-19T12:20:33.988Z,24.75
2018-06-19T12:21:44.202Z,24.5
2018-06-19T12:22:54.178Z,24.22
2018-06-19T12:24:04.443Z,24.12
2018-06-19T12:25:14.962Z,24.07
2018-06-19T12:26:25.156Z,24.05
2018-06-19T12:27:35.346Z,24.13
2018-06-19T12:28:45.536Z,24.09
2018-06-19T12:29:55.729Z,24.28
2018-06-19T12:31:05.986Z,24.19
2018-06-19T12:32:16.170Z,24.16
2018-06-19T12:33:26.387Z,24.19
2018-06-19T12:34:36.588Z,24.34
2018-06-19T12:35:46.783Z,24.34
2018-06-19T12:36:57.044Z,24.2
2018-06-19T12:38:06.965Z,24.12
2018-06-19T12:39:17.137Z,24.07
2018-06-19T12:40:27.291Z,23.87
2018-06-19T12:41:37.542Z,23.79
2018-06-19T12:42:47.932Z,23.7
2018-06-19T12:43:58.153Z,23.8
2018-06-19T12:45:07.959Z,23.75
2018-06-19T12:46:18.223Z,23.72
2018-06-19T12:47:28.514Z,23.75
2018-06-19T12:48:38.719Z,23.68
2018-06-19T12:49:48.710Z,23.68
2018-06-19T12:50:59.022Z,23.7
2018-06-19T12:52:09.240Z,23.73
2018-06-19T12:53:19.412Z,23.72
2018-06-19T12:54:29.604Z,23.69
2018-06-19T12:55:39.762Z,23.54
2018-06-19T12:56:50.009Z,23.48
2018-06-19T12:58:00.175Z,23.35
2018-06-19T12:59:10.350Z,23.42
2018-06-19T13:00:20.605Z,23.42
2018-06-19T13:01:30.765Z,23.39
2018-06-19T13:02:40.934Z,23.51
2018-06-19T13:03:51.100Z,23.51
2018-06-19T13:05:01.355Z,23.63
2018-06-19T13:06:11.589Z,23.69
2018-06-19T13:07:21.839Z,23.55
2018-06-19T13:08:32.130Z,23.58
2018-06-19T13:09:42.309Z,23.55
2018-06-19T13:10:52.539Z,23.5
2018-06-19T13:12:02.463Z,23.43
2018-06-19T13:13:12.633Z,23.42
2018-06-19T13:14:22.806Z,23.5
2018-06-19T13:15:32.977Z,23.5
2018-06-19T13:16:43.140Z,23.58
2018-06-19T13:17:53.322Z,23.63
2018-06-19T13:19:03.574Z,23.58
2018-06-19T13:20:13.729Z,23.54
2018-06-19T13:21:23.999Z,23.58
2018-06-19T13:22:34.183Z,23.53
2018-06-19T13:23:44.564Z,23.4
2018-06-19T13:24:54.852Z,23.36
2018-06-19T13:26:05.033Z,23.24
2018-06-19T13:27:14.838Z,23.18
2018-06-19T13:28:25.023Z,23.23
2018-06-19T13:29:35.207Z,23.16
2018-06-19T13:30:45.129Z,23.06
2018-06-19T13:31:55.039Z,23.17
2018-06-19T13:33:04.993Z,23.21
2018-06-19T13:34:15.172Z,23.18
2018-06-19T13:35:25.415Z,23.23
2018-06-19T13:36:35.746Z,23.21
2018-06-19T13:37:45.916Z,23.32
2018-06-19T13:38:56.072Z,23.28
2018-06-19T13:40:06.156Z,23.31
2018-06-19T13:41:16.361Z,23.31
2018-06-19T13:42:26.543Z,23.35
2018-06-19T13:43:36.795Z,23.31
2018-06-19T13:44:46.985Z,23.33
2018-06-19T13:45:57.235Z,23.2
2018-06-19T13:47:07.430Z,23.11
2018-06-19T13:48:17.711Z,23.13
2018-06-19T13:49:28.057Z,23.14
2018-06-19T13:50:38.334Z,23.05
2018-06-19T13:51:48.513Z,23.18
2018-06-19T13:52:58.692Z,23.21
2018-06-19T13:54:08.900Z,23.11
2018-06-19T13:55:19.110Z,23.03
2018-06-19T13:56:29.038Z,23.09
2018-06-19T13:57:39.225Z,23.03
2018-06-19T13:58:49.389Z,23.05
2018-06-19T13:59:59.559Z,23.08
2018-06-19T14:01:09.763Z,23.08
2018-06-19T14:02:19.966Z,23.06
2018-06-19T14:03:30.156Z,23.08
2018-06-19T14:04:40.339Z,23.17
2018-06-19T14:05:50.551Z,23.23
2018-06-19T14:07:00.848Z,23.2
2018-06-19T14:08:11.403Z,23.17
2018-06-19T14:09:21.721Z,23.2
2018-06-19T14:10:31.935Z,23.16
2018-06-19T14:11:42.138Z,23.09
2018-06-19T14:12:52.458Z,23.01
2018-06-19T14:14:02.784Z,23.01
2018-06-19T14:15:12.951Z,23.03
2018-06-19T14:16:23.153Z,22.96
2018-06-19T14:17:33.360Z,22.9
2018-06-19T14:18:43.629Z,22.9
2018-06-19T14:19:54.116Z,22.75
2018-06-19T14:21:04.334Z,22.75
2018-06-19T14:22:14.557Z,22.82
2018-06-19T14:23:24.794Z,22.86
2018-06-19T14:24:34.981Z,22.9
2018-06-19T14:25:45.165Z,22.89
2018-06-19T14:26:55.492Z,22.85
2018-06-19T14:28:05.513Z,22.71
2018-06-19T14:29:15.673Z,22.68
2018-06-19T14:30:25.865Z,22.6
2018-06-19T14:31:35.851Z,22.7
2018-06-19T14:32:46.153Z,22.63
2018-06-19T14:33:56.397Z,22.61
2018-06-19T14:35:06.610Z,22.64
2018-06-19T14:36:16.844Z,22.7
2018-06-19T14:37:26.771Z,22.75
2018-06-19T14:38:37.893Z,22.67
2018-06-19T14:39:47.817Z,22.75
2018-06-19T14:40:58.072Z,22.7
2018-06-19T14:42:08.004Z,22.71
2018-06-19T14:43:19.186Z,22.76
2018-06-19T14:44:29.379Z,22.8
2018-06-19T14:45:39.546Z,22.86
2018-06-19T14:46:49.891Z,22.78
2018-06-19T14:48:00.243Z,22.8
2018-06-19T14:49:10.434Z,22.8
2018-06-19T14:50:20.378Z,22.8
2018-06-19T14:51:30.417Z,22.78
2018-06-19T14:52:40.632Z,22.68
2018-06-19T14:53:50.840Z,22.65
2018-06-19T14:55:01.048Z,22.63
2018-06-19T14:56:10.968Z,22.61
2018-06-19T14:57:21.221Z,22.63
2018-06-19T14:58:31.573Z,22.5
2018-06-19T14:59:41.797Z,22.57
2018-06-19T15:00:51.967Z,22.48
2018-06-19T15:02:02.153Z,22.61
2018-06-19T15:03:12.381Z,22.45
2018-06-19T15:04:22.639Z,22.46
2018-06-19T15:05:32.878Z,22.45
2018-06-19T15:06:43.060Z,22.4
2018-06-19T15:07:53.009Z,22.46
2018-06-19T15:09:03.192Z,22.34
2018-06-19T15:10:13.763Z,22.28